createdAt,value
2023-05-04T04:47:18.002Z,76.04
2023-05-04T04:49:44.987Z,75.08
2023-05-04T04:52:12.354Z,73.91
2023-05-04T04:54:39.339Z,73.81
2023-05-04T04:57:06.357Z,73.80
2023-05-04T04:59:33.240Z,72.96
2023-05-04T05:02:00.698Z,71.86
2023-05-04T05:04:28.191Z,71.19
2023-05-04T05:06:55.113Z,69.90
2023-05-04T05:09:21.989Z,69.02
2023-05-04T05:11:49.022Z,67.90
2023-05-04T05:14:15.919Z,66.81
2023-05-04T05:16:42.941Z,65.66
2023-05-04T05:19:09.931Z,64.89
2023-05-04T05:21:36.856Z,63.97
2023-05-04T05:24:03.895Z,64.62
2023-05-04T05:26:31.522Z,64.20
2023-05-04T05:28:59.434Z,64.36
2023-05-04T05:31:28.036Z,64.02
2023-05-04T05:34:02.083Z,63.56
2023-05-04T05:37:09.118Z,64.68
2023-05-04T05:44:50.516Z,63.01
2023-05-04T05:52:50.911Z,61.78
2023-05-04T05:57:02.141Z,61.19
2023-05-04T06:00:22.823Z,61.49
2023-05-04T06:02:52.619Z,60.95
2023-05-04T06:05:20.150Z,58.82
2023-05-04T06:07:48.811Z,58.12
2023-05-04T06:10:16.651Z,57.56
2023-05-04T06:12:44.021Z,56.78
2023-05-04T06:16:12.958Z,56.04
2023-05-04T06:18:56.549Z,55.08
2023-05-04T06:21:49.758Z,55.76
2023-05-04T06:25:22.087Z,54.57
2023-05-04T06:28:41.353Z,52.62
2023-05-04T06:34:40.219Z,52.02
2023-05-04T06:37:07.860Z,51.52
2023-05-04T06:39:36.909Z,50.64
2023-05-04T06:42:18.494Z,50.13
2023-05-04T06:44:54.421Z,48.79
2023-05-04T06:47:21.425Z,47.03
2023-05-04T06:49:51.892Z,47.47
2023-05-04T06:52:19.125Z,47.60
2023-05-04T06:54:51.266Z,47.29
2023-05-04T06:57:19.957Z,47.63
2023-05-04T06:59:47.059Z,47.11
2023-05-04T07:02:14.329Z,47.30
2023-05-04T07:04:41.618Z,48.11
2023-05-04T07:07:28.470Z,46.93
2023-05-04T07:10:43.934Z,46.36
2023-05-04T07:13:50.855Z,46.53
2023-05-04T07:17:56.528Z,46.02
2023-05-04T07:21:28.409Z,46.28
2023-05-04T07:25:23.177Z,44.81
2023-05-04T07:27:56.097Z,45.66
2023-05-04T07:30:46.382Z,44.91
2023-05-04T07:33:20.459Z,45.39
2023-05-04T07:35:48.012Z,46.10
2023-05-04T07:38:14.940Z,46.31
2023-05-04T07:40:42.671Z,45.74
2023-05-04T07:43:10.262Z,45.33
2023-05-04T07:45:37.481Z,45.57
2023-05-04T07:48:07.829Z,45.17
2023-05-04T07:50:39.776Z,44.23
2023-05-04T07:53:06.911Z,44.33
2023-05-04T07:55:37.107Z,45.13
2023-05-04T07:58:04.311Z,44.88
2023-05-04T08:00:36.325Z,43.88
2023-05-04T08:03:07.361Z,44.39
2023-05-04T08:05:46.921Z,44.45
2023-05-04T08:08:42.787Z,44.38
2023-05-04T08:11:20.568Z,43.10
2023-05-04T08:13:49.823Z,43.41
2023-05-04T08:16:23.054Z,42.98
2023-05-04T08:18:53.743Z,43.39
2023-05-04T08:21:21.036Z,42.60
2023-05-04T08:23:48.673Z,43.46
2023-05-04T08:26:15.652Z,42.32
2023-05-04T08:28:43.057Z,41.83
2023-05-04T08:31:12.443Z,42.77
2023-05-04T08:33:39.936Z,42.05
2023-05-04T08:36:08.740Z,40.75
2023-05-04T08:38:36.126Z,41.89
2023-05-04T08:41:06.476Z,41.39
2023-05-04T08:43:38.001Z,42.00
2023-05-04T08:46:10.625Z,41.86
2023-05-04T08:48:37.888Z,41.28
2023-05-04T08:51:04.985Z,40.07
2023-05-04T08:53:31.946Z,40.55
2023-05-04T08:56:04.896Z,39.84
2023-05-04T08:58:38.797Z,39.71
2023-05-04T09:01:07.257Z,39.09
2023-05-04T09:03:34.940Z,38.64
2023-05-04T09:06:45.464Z,39.34
2023-05-04T09:12:50.658Z,39.51
2023-05-04T09:15:23.890Z,39.76
2023-05-04T09:18:07.147Z,39.78
2023-05-04T09:20:45.198Z,37.59
2023-05-04T09:23:12.195Z,36.82
2023-05-04T09:25:48.887Z,36.37
2023-05-04T09:28:16.448Z,35.31
2023-05-04T09:30:43.521Z,35.82
2023-05-04T09:33:13.420Z,35.55
2023-05-04T09:35:50.280Z,35.70
2023-05-04T09:38:30.222Z,35.53
2023-05-04T09:40:57.189Z,35.81
2023-05-04T09:43:24.840Z,35.55
2023-05-04T09:45:51.913Z,34.22
2023-05-04T09:48:25.833Z,34.67
2023-05-04T09:50:57.339Z,34.40
2023-05-04T09:53:25.513Z,34.31
2023-05-04T09:56:14.833Z,34.13
2023-05-04T09:58:41.768Z,34.33
2023-05-04T10:01:09.176Z,34.59
2023-05-04T10:03:36.158Z,33.48
2023-05-04T10:06:04.435Z,33.84
2023-05-04T10:08:34.503Z,33.51
2023-05-04T10:11:01.899Z,33.72
2023-05-04T10:14:53.460Z,33.41
2023-05-04T10:17:27.658Z,32.98
2023-05-04T10:20:25.621Z,32.94
2023-05-04T10:22:59.094Z,33.48
2023-05-04T10:25:44.368Z,32.81
2023-05-04T10:28:25.577Z,33.43
2023-05-04T10:30:58.709Z,31.88
2023-05-04T10:33:26.615Z,31.62
2023-05-04T10:35:54.241Z,31.54
2023-05-04T10:38:32.777Z,31.42
2023-05-04T10:40:59.776Z,31.21
2023-05-04T10:43:29.181Z,30.39
2023-05-04T10:45:57.746Z,29.55
2023-05-04T10:48:35.186Z,28.54
2023-05-04T10:51:02.209Z,28.68
2023-05-04T10:53:33.078Z,27.70
2023-05-04T10:56:00.308Z,28.59
2023-05-04T10:58:30.437Z,28.27
2023-05-04T11:00:57.416Z,26.64
2023-05-04T11:03:25.142Z,26.76
2023-05-04T11:05:54.722Z,27.30
2023-05-04T11:08:25.557Z,27.68
2023-05-04T11:11:07.071Z,28.13
2023-05-04T11:13:34.938Z,28.45
2023-05-04T11:16:02.213Z,28.79
2023-05-04T11:18:37.609Z,28.70
2023-05-04T11:21:04.707Z,29.37
2023-05-04T11:23:31.791Z,29.15
2023-05-04T11:25:58.688Z,28.56
2023-05-04T11:28:36.066Z,28.83
2023-05-04T11:31:16.359Z,28.44
2023-05-04T11:33:51.396Z,28.73
2023-05-04T11:36:18.393Z,29.29
2023-05-04T11:38:45.544Z,28.61
2023-05-04T11:41:13.065Z,28.33
2023-05-04T11:43:42.177Z,28.02
2023-05-04T11:46:09.210Z,28.39
2023-05-04T11:48:36.250Z,28.70
2023-05-04T11:51:03.841Z,28.80
2023-05-04T11:53:38.640Z,29.28
2023-05-04T11:56:06.739Z,28.09
2023-05-04T11:58:33.720Z,28.33
2023-05-04T12:01:00.615Z,28.66
2023-05-04T12:03:43.177Z,28.44
2023-05-04T12:06:15.383Z,28.34
2023-05-04T12:08:42.612Z,27.89
2023-05-04T12:11:17.069Z,27.53
2023-05-04T12:13:44.946Z,27.63
2023-05-04T12:16:21.278Z,27.36
2023-05-04T12:18:48.421Z,28.17
2023-05-04T12:21:20.019Z,27.24
2023-05-04T12:23:47.584Z,27.43
2023-05-04T12:26:16.271Z,27.99
2023-05-04T12:28:45.216Z,27.79
2023-05-04T12:31:12.252Z,28.38
2023-05-04T12:33:39.204Z,29.00
2023-05-04T12:36:06.645Z,29.54
2023-05-04T12:38:34.018Z,30.65
2023-05-04T12:41:04.286Z,28.46
2023-05-04T12:43:33.089Z,28.57
2023-05-04T12:46:00.127Z,29.28
2023-05-04T12:48:29.247Z,27.30
2023-05-04T12:50:56.227Z,27.19
2023-05-04T12:53:25.843Z,28.30
2023-05-04T12:55:52.860Z,28.43
2023-05-04T12:58:19.764Z,28.25
2023-05-04T13:00:46.767Z,28.90
2023-05-04T13:03:14.683Z,29.49
2023-05-04T13:05:41.828Z,29.61
2023-05-04T13:08:08.845Z,30.04
2023-05-04T13:10:36.034Z,29.68
2023-05-04T13:13:04.940Z,28.88
2023-05-04T13:15:33.488Z,30.00
2023-05-04T13:18:00.749Z,30.80
